createdAt,value
2018-10-01T00:00:14.890Z,10.83
2018-10-01T00:02:44.308Z,10.00
2018-10-01T00:05:13.734Z,10.03
2018-10-01T00:07:43.164Z,10.03
2018-10-01T00:10:12.597Z,10.20
2018-10-01T00:12:42.025Z,10.20
2018-10-01T00:15:11.449Z,10.67
2018-10-01T00:17:40.903Z,10.43
2018-10-01T00:20:15.725Z,10.10
2018-10-01T00:22:48.503Z,10.17
2018-10-01T00:25:18.480Z,9.90
2018-10-01T00:27:48.087Z,9.23
2018-10-01T00:30:17.525Z,8.43
2018-10-01T00:32:46.927Z,8.63
2018-10-01T00:35:16.421Z,9.17
2018-10-01T00:37:45.771Z,9.10
2018-10-01T00:40:15.271Z,9.30
2018-10-01T00:42:44.699Z,9.67
2018-10-01T00:45:14.182Z,8.90
2018-10-01T00:47:43.622Z,8.83
2018-10-01T00:50:13.007Z,9.57
2018-10-01T00:52:42.475Z,8.57
2018-10-01T00:55:11.893Z,8.57
2018-10-01T00:57:41.284Z,8.50
2018-10-01T01:00:11.075Z,8.50
2018-10-01T01:02:40.496Z,8.73
2018-10-01T01:05:09.962Z,8.30
2018-10-01T01:07:39.387Z,7.93
2018-10-01T01:10:08.816Z,8.50
2018-10-01T01:12:38.266Z,8.40
2018-10-01T01:15:08.146Z,7.90
2018-10-01T01:17:37.624Z,8.27
2018-10-01T01:20:07.127Z,9.10
2018-10-01T01:22:36.551Z,8.73
2018-10-01T01:25:06.101Z,8.23
2018-10-01T01:27:35.629Z,7.63
2018-10-01T01:30:05.114Z,8.57
2018-10-01T01:32:34.530Z,8.00
2018-10-01T01:35:03.964Z,8.10
2018-10-01T01:37:33.436Z,8.43
2018-10-01T01:40:02.868Z,8.67
2018-10-01T01:42:32.263Z,8.70
2018-10-01T01:45:01.642Z,8.87
2018-10-01T01:47:31.045Z,8.10
2018-10-01T01:50:00.428Z,9.10
2018-10-01T01:52:29.833Z,8.23
2018-10-01T01:54:59.225Z,9.23
2018-10-01T01:57:28.621Z,8.80
2018-10-01T01:59:58.099Z,8.43
2018-10-01T02:02:27.484Z,8.60
2018-10-01T02:04:56.883Z,9.20
2018-10-01T02:07:26.289Z,8.10
2018-10-01T02:09:55.701Z,8.10
2018-10-01T02:12:25.185Z,8.57
2018-10-01T02:14:54.628Z,8.57
2018-10-01T02:17:24.003Z,8.97
2018-10-01T02:19:53.572Z,9.83
2018-10-01T02:22:22.942Z,8.73
2018-10-01T02:24:52.403Z,8.47
2018-10-01T02:27:21.833Z,9.27
2018-10-01T02:29:51.228Z,8.93
2018-10-01T02:32:20.695Z,8.57
2018-10-01T02:34:50.170Z,8.10
2018-10-01T02:37:19.710Z,8.17
2018-10-01T02:39:49.116Z,8.93
2018-10-01T02:42:18.528Z,8.63
2018-10-01T02:44:47.913Z,8.73
2018-10-01T02:47:17.485Z,8.37
2018-10-01T02:49:46.918Z,8.87
2018-10-01T02:52:21.431Z,8.03
2018-10-01T02:54:50.804Z,8.03
2018-10-01T02:57:20.251Z,8.23
2018-10-01T02:59:49.726Z,8.40
2018-10-01T03:02:19.122Z,8.33
2018-10-01T03:04:48.587Z,7.27
2018-10-01T03:07:18.019Z,7.40
2018-10-01T03:09:47.987Z,7.57
2018-10-01T03:12:17.435Z,7.20
2018-10-01T03:14:46.885Z,7.13
2018-10-01T03:17:16.278Z,8.07
2018-10-01T03:19:45.735Z,7.33
2018-10-01T03:22:15.143Z,7.53
2018-10-01T03:24:44.623Z,8.37
2018-10-01T03:27:14.051Z,7.80
2018-10-01T03:29:43.509Z,7.57
2018-10-01T03:32:12.949Z,8.30
2018-10-01T03:34:42.529Z,7.87
2018-10-01T03:37:12.034Z,7.10
2018-10-01T03:39:41.478Z,8.10
2018-10-01T03:42:10.964Z,7.80
2018-10-01T03:44:40.374Z,7.43
2018-10-01T03:47:09.849Z,7.50
2018-10-01T03:49:39.249Z,7.50
2018-10-01T03:52:08.690Z,7.57
2018-10-01T03:54:38.175Z,8.03
2018-10-01T03:57:07.921Z,7.30
2018-10-01T03:59:37.367Z,7.53
2018-10-01T04:02:06.870Z,6.80
2018-10-01T04:04:36.323Z,6.53
2018-10-01T04:07:05.789Z,6.80
2018-10-01T04:09:35.219Z,7.53
2018-10-01T04:12:04.681Z,6.70
2018-10-01T04:14:34.183Z,6.37
2018-10-01T04:17:03.660Z,7.23
2018-10-01T04:19:33.135Z,6.00
2018-10-01T04:22:02.578Z,6.57
2018-10-01T04:24:32.028Z,6.67
2018-10-01T04:27:01.764Z,6.70
2018-10-01T04:29:31.181Z,6.73
2018-10-01T04:32:00.611Z,6.40
2018-10-01T04:34:30.054Z,6.30
2018-10-01T04:36:59.476Z,6.23
2018-10-01T04:39:28.919Z,6.80
2018-10-01T04:41:58.615Z,6.30
2018-10-01T04:44:28.087Z,6.20
2018-10-01T04:46:57.519Z,5.53
2018-10-01T04:49:26.991Z,5.73
2018-10-01T04:51:56.447Z,5.30
2018-10-01T04:54:25.883Z,5.90
2018-10-01T04:56:55.256Z,5.43
2018-10-01T04:59:24.668Z,5.17
2018-10-01T05:01:54.102Z,5.00
2018-10-01T05:04:23.566Z,4.97
2018-10-01T05:06:53.082Z,4.97
2018-10-01T05:09:22.491Z,4.90
2018-10-01T05:11:51.952Z,4.60
2018-10-01T05:14:21.476Z,4.37
2018-10-01T05:16:50.902Z,4.40
2018-10-01T05:19:20.395Z,4.80
2018-10-01T05:21:49.850Z,4.67
2018-10-01T05:24:19.287Z,4.67
2018-10-01T05:26:48.812Z,4.47
2018-10-01T05:29:18.247Z,4.00
2018-10-01T05:31:47.714Z,4.03
2018-10-01T05:34:17.153Z,4.10
2018-10-01T05:36:46.572Z,3.83
2018-10-01T05:39:16.007Z,4.37
2018-10-01T05:41:45.440Z,3.67
2018-10-01T05:44:14.923Z,3.53
2018-10-01T05:46:44.315Z,3.27
2018-10-01T05:49:13.797Z,4.07
2018-10-01T05:51:43.168Z,3.50
2018-10-01T05:54:12.603Z,3.00
2018-10-01T05:56:42.035Z,4.07
2018-10-01T05:59:11.490Z,3.47
2018-10-01T06:01:40.942Z,3.17
2018-10-01T06:04:10.398Z,3.70
2018-10-01T06:06:39.771Z,3.30
2018-10-01T06:09:10.755Z,3.37
2018-10-01T06:11:40.244Z,3.80
2018-10-01T06:14:09.693Z,3.50
2018-10-01T06:16:39.145Z,3.57
2018-10-01T06:19:08.666Z,4.00
2018-10-01T06:21:38.145Z,3.13
2018-10-01T06:24:07.727Z,3.30
2018-10-01T06:26:37.308Z,3.30
2018-10-01T06:29:06.736Z,3.50
2018-10-01T06:31:36.189Z,2.70
2018-10-01T06:34:05.643Z,2.80
2018-10-01T06:36:35.090Z,2.90
2018-10-01T06:39:06.731Z,3.30
2018-10-01T06:41:36.214Z,3.67
2018-10-01T06:44:05.658Z,3.10
2018-10-01T06:46:35.096Z,3.00
2018-10-01T06:49:04.623Z,3.00
2018-10-01T06:51:34.078Z,3.30
2018-10-01T06:54:03.532Z,2.47
2018-10-01T06:56:32.985Z,3.17
2018-10-01T06:59:02.428Z,2.67
2018-10-01T07:01:31.952Z,2.93
2018-10-01T07:04:01.389Z,3.07
2018-10-01T07:06:30.884Z,2.23
2018-10-01T07:09:00.369Z,3.10
2018-10-01T07:11:29.911Z,2.73
2018-10-01T07:13:59.368Z,3.10
2018-10-01T07:16:28.927Z,2.63
2018-10-01T07:18:58.775Z,2.60
2018-10-01T07:21:28.211Z,2.53
2018-10-01T07:23:57.716Z,2.40
2018-10-01T07:26:27.260Z,2.33
2018-10-01T07:28:56.974Z,2.10
2018-10-01T07:31:26.433Z,2.77
2018-10-01T07:33:55.837Z,2.93
2018-10-01T07:36:25.287Z,3.20
2018-10-01T07:38:54.796Z,2.33
2018-10-01T07:41:24.211Z,2.20
2018-10-01T07:43:53.679Z,2.10
2018-10-01T07:46:23.168Z,2.03
2018-10-01T07:48:52.568Z,2.70
2018-10-01T07:51:22.025Z,3.03
2018-10-01T07:53:51.586Z,2.37
2018-10-01T07:56:21.049Z,2.50
2018-10-01T07:58:50.508Z,2.27
2018-10-01T08:01:20.278Z,1.87
2018-10-01T08:03:50.186Z,2.00
2018-10-01T08:06:19.676Z,1.80
2018-10-01T08:08:49.096Z,2.23
2018-10-01T08:11:19.030Z,1.80
2018-10-01T08:13:48.474Z,2.00
2018-10-01T08:16:17.915Z,1.97
2018-10-01T08:18:47.363Z,2.20
2018-10-01T08:21:16.848Z,2.20
2018-10-01T08:23:46.453Z,2.20
2018-10-01T08:26:15.955Z,2.33
2018-10-01T08:28:45.465Z,2.73
2018-10-01T08:31:14.871Z,1.80
2018-10-01T08:33:44.322Z,1.80
2018-10-01T08:36:13.774Z,1.80
2018-10-01T08:38:43.500Z,2.13
2018-10-01T08:41:13.116Z,2.10
2018-10-01T08:43:42.544Z,2.10
2018-10-01T08:46:11.959Z,1.70
2018-10-01T08:48:45.851Z,1.67
2018-10-01T08:51:21.405Z,2.10
2018-10-01T08:53:56.340Z,2.00
2018-10-01T08:56:25.775Z,1.73
2018-10-01T08:58:55.271Z,2.17
2018-10-01T09:01:24.658Z,2.00
2018-10-01T09:03:54.145Z,1.90
2018-10-01T09:06:23.631Z,1.90
2018-10-01T09:08:53.110Z,1.80
2018-10-01T09:11:22.618Z,1.77
2018-10-01T09:13:52.661Z,1.50
2018-10-01T09:16:22.229Z,1.67
2018-10-01T09:18:51.687Z,1.70
2018-10-01T09:21:21.292Z,1.33
2018-10-01T09:23:50.732Z,1.53
2018-10-01T09:26:20.227Z,1.50
2018-10-01T09:28:50.260Z,1.40
2018-10-01T09:31:20.045Z,1.30
2018-10-01T09:33:49.490Z,1.60
2018-10-01T09:36:19.003Z,1.30
2018-10-01T09:38:48.459Z,1.40
2018-10-01T09:41:18.213Z,1.50
2018-10-01T09:43:47.925Z,1.27
2018-10-01T09:46:19.820Z,1.30
2018-10-01T09:48:49.256Z,1.00
2018-10-01T09:51:18.833Z,1.20
2018-10-01T09:53:48.357Z,1.30
2018-10-01T09:56:18.352Z,1.20
2018-10-01T09:58:47.806Z,1.70
2018-10-01T10:01:21.623Z,1.23
2018-10-01T10:03:54.121Z,1.40
2018-10-01T10:06:23.536Z,1.23
2018-10-01T10:08:53.045Z,1.10
2018-10-01T10:11:22.560Z,1.20
2018-10-01T10:13:51.973Z,1.10
2018-10-01T10:16:23.523Z,1.33
2018-10-01T10:18:52.915Z,1.20
2018-10-01T10:21:22.840Z,0.93
2018-10-01T10:23:52.319Z,1.10
2018-10-01T10:26:25.767Z,1.10
2018-10-01T10:28:55.288Z,1.10
2018-10-01T10:31:24.743Z,1.07
2018-10-01T10:33:54.219Z,0.90
2018-10-01T10:36:23.881Z,1.03
2018-10-01T10:38:54.334Z,0.90
2018-10-01T10:41:23.826Z,0.93
2018-10-01T10:43:54.281Z,0.90
2018-10-01T10:46:25.629Z,1.00
2018-10-01T10:48:55.488Z,0.73
2018-10-01T10:51:25.443Z,0.87
2018-10-01T10:53:54.907Z,0.70
2018-10-01T10:56:24.363Z,1.00
2018-10-01T10:58:53.927Z,0.73
2018-10-01T11:01:23.395Z,0.90
2018-10-01T11:03:52.878Z,1.10
2018-10-01T11:06:22.373Z,0.67
2018-10-01T11:08:52.837Z,1.00
2018-10-01T11:11:22.254Z,1.00
2018-10-01T11:13:51.807Z,0.60
2018-10-01T11:16:21.256Z,1.00
2018-10-01T11:18:51.106Z,0.77
2018-10-01T11:21:20.307Z,1.00
2018-10-01T11:23:49.702Z,0.73
2018-10-01T11:26:19.129Z,1.00
2018-10-01T11:28:52.886Z,0.70
2018-10-01T11:31:22.516Z,1.50
2018-10-01T11:33:52.053Z,1.30
2018-10-01T11:36:21.589Z,0.70
2018-10-01T11:38:51.042Z,1.07
2018-10-01T11:41:20.583Z,0.60
2018-10-01T11:43:50.081Z,0.50
2018-10-01T11:46:19.555Z,0.50
2018-10-01T11:48:49.037Z,0.77
2018-10-01T11:51:18.608Z,0.50
2018-10-01T11:53:48.026Z,0.60
2018-10-01T11:56:17.526Z,0.70
2018-10-01T11:58:47.004Z,0.97
2018-10-01T12:01:16.527Z,0.97
2018-10-01T12:03:46.450Z,1.00
2018-10-01T12:06:15.799Z,0.80
2018-10-01T12:08:47.428Z,0.43
2018-10-01T12:11:16.997Z,0.60
2018-10-01T12:13:46.632Z,0.30
2018-10-01T12:16:16.232Z,0.40
2018-10-01T12:18:49.212Z,0.40
2018-10-01T12:21:19.442Z,0.60
2018-10-01T12:23:48.966Z,0.63
2018-10-01T12:26:18.438Z,0.40
2018-10-01T12:28:48.261Z,0.47
2018-10-01T12:31:21.409Z,0.40
2018-10-01T12:33:51.996Z,0.63
2018-10-01T12:36:22.529Z,0.33
2018-10-01T12:38:53.859Z,0.50
2018-10-01T12:41:24.013Z,0.43
2018-10-01T12:43:54.222Z,0.40
2018-10-01T12:46:24.517Z,0.30
2018-10-01T12:48:54.401Z,0.40
2018-10-01T12:51:24.322Z,0.73
2018-10-01T12:53:54.879Z,0.40
2018-10-01T12:56:25.214Z,0.40
2018-10-01T12:58:54.663Z,0.40
2018-10-01T13:01:25.103Z,0.50
2018-10-01T13:03:55.546Z,0.40
2018-10-01T13:06:25.029Z,0.40
2018-10-01T13:08:55.341Z,0.60
2018-10-01T13:11:24.802Z,0.60
2018-10-01T13:13:55.165Z,0.63
2018-10-01T13:16:25.092Z,0.73
2018-10-01T13:18:54.899Z,0.93
2018-10-01T13:21:24.443Z,0.90
2018-10-01T13:23:53.996Z,0.97
2018-10-01T13:26:23.778Z,0.77
2018-10-01T13:28:53.243Z,1.20
2018-10-01T13:31:22.759Z,1.23
2018-10-01T13:33:52.312Z,0.87
2018-10-01T13:36:22.979Z,1.80
2018-10-01T13:38:55.455Z,1.30
2018-10-01T13:41:26.086Z,1.50
2018-10-01T13:43:58.169Z,1.43
2018-10-01T13:46:28.317Z,1.47
2018-10-01T13:49:01.247Z,1.20
2018-10-01T13:51:35.472Z,1.10
2018-10-01T13:54:05.003Z,1.00
2018-10-01T13:56:34.594Z,1.23
2018-10-01T13:59:06.525Z,1.00
2018-10-01T14:01:39.977Z,1.13
2018-10-01T14:04:13.344Z,1.07
2018-10-01T14:06:43.045Z,0.80
2018-10-01T14:09:16.968Z,0.90
2018-10-01T14:11:53.623Z,0.73
2018-10-01T14:14:23.808Z,0.90
2018-10-01T14:16:59.205Z,0.87
2018-10-01T14:19:34.015Z,1.03
2018-10-01T14:22:06.444Z,0.93
2018-10-01T14:24:36.127Z,0.90
2018-10-01T14:27:06.175Z,1.00
2018-10-01T14:29:37.187Z,1.20
2018-10-01T14:32:07.642Z,0.93
2018-10-01T14:34:37.345Z,0.93
2018-10-01T14:37:08.024Z,1.00
2018-10-01T14:39:37.526Z,1.00
2018-10-01T14:42:11.632Z,0.97
2018-10-01T14:44:45.467Z,1.10
2018-10-01T14:47:19.455Z,1.10
2018-10-01T14:49:54.029Z,0.80
2018-10-01T14:52:28.281Z,1.10
2018-10-01T14:55:02.147Z,0.90
2018-10-01T14:57:35.745Z,1.00
2018-10-01T15:00:06.070Z,0.93
2018-10-01T15:02:41.351Z,0.87
2018-10-01T15:05:14.578Z,1.13
2018-10-01T15:07:49.221Z,1.00
2018-10-01T15:10:23.527Z,1.00
2018-10-01T15:13:00.024Z,0.93
2018-10-01T15:15:33.282Z,1.50
2018-10-01T15:18:06.424Z,1.23
2018-10-01T15:20:36.431Z,1.03
2018-10-01T15:23:06.271Z,1.07
2018-10-01T15:25:35.835Z,1.20
2018-10-01T15:28:11.393Z,0.73
2018-10-01T15:30:45.276Z,0.70
2018-10-01T15:33:21.824Z,0.60
2018-10-01T15:35:55.983Z,0.67
2018-10-01T15:38:29.560Z,0.70
2018-10-01T15:41:05.210Z,0.87
2018-10-01T15:43:39.000Z,0.80
2018-10-01T15:46:08.690Z,0.77
2018-10-01T15:48:41.739Z,0.80
2018-10-01T15:51:16.196Z,0.70
2018-10-01T15:53:48.921Z,0.70
2018-10-01T15:56:23.200Z,0.70
2018-10-01T15:58:57.369Z,0.73
2018-10-01T16:01:27.298Z,0.80
2018-10-01T16:03:56.846Z,0.90
2018-10-01T16:06:30.996Z,0.90
2018-10-01T16:09:05.262Z,0.70
2018-10-01T16:11:38.801Z,1.13
2018-10-01T16:14:08.993Z,1.57
2018-10-01T16:16:44.025Z,1.00
2018-10-01T16:19:18.415Z,1.13
2018-10-01T16:21:52.303Z,1.00
2018-10-01T16:24:27.259Z,1.20
2018-10-01T16:26:57.021Z,1.00
2018-10-01T16:29:26.512Z,1.27
2018-10-01T16:31:56.029Z,1.20
2018-10-01T16:34:25.493Z,1.10
2018-10-01T16:36:55.037Z,1.10
2018-10-01T16:39:24.440Z,0.90
2018-10-01T16:41:53.882Z,0.77
2018-10-01T16:44:23.394Z,0.80
2018-10-01T16:46:52.860Z,0.87
2018-10-01T16:49:22.357Z,0.90
2018-10-01T16:51:51.841Z,0.70
2018-10-01T16:54:21.350Z,0.80
2018-10-01T16:56:50.904Z,0.57
2018-10-01T16:59:20.605Z,0.53
2018-10-01T17:01:50.023Z,0.67
2018-10-01T17:04:19.452Z,0.80
2018-10-01T17:06:48.903Z,0.73
2018-10-01T17:09:18.344Z,0.70
2018-10-01T17:11:47.829Z,0.70
2018-10-01T17:14:17.347Z,0.80
2018-10-01T17:16:46.825Z,0.80
2018-10-01T17:19:16.259Z,1.00
2018-10-01T17:21:45.694Z,1.20
2018-10-01T17:24:15.188Z,1.13
2018-10-01T17:26:44.690Z,1.30
2018-10-01T17:29:14.047Z,1.20
2018-10-01T17:31:43.512Z,1.27
2018-10-01T17:34:13.024Z,1.50
2018-10-01T17:36:42.485Z,1.77
2018-10-01T17:39:11.989Z,2.00
2018-10-01T17:41:41.480Z,1.87
2018-10-01T17:44:11.045Z,1.33
2018-10-01T17:46:40.546Z,1.40
2018-10-01T17:49:10.004Z,1.30
2018-10-01T17:51:39.573Z,1.17
2018-10-01T17:54:08.991Z,1.57
2018-10-01T17:56:38.459Z,1.00
2018-10-01T17:59:07.948Z,1.23
2018-10-01T18:01:37.375Z,1.17
2018-10-01T18:04:06.850Z,1.33
2018-10-01T18:06:36.595Z,1.30
2018-10-01T18:09:08.505Z,1.60
2018-10-01T18:11:38.004Z,1.10
2018-10-01T18:14:08.414Z,0.97
2018-10-01T18:16:39.851Z,1.07
2018-10-01T18:19:09.602Z,1.33
2018-10-01T18:21:39.219Z,1.23
2018-10-01T18:24:08.817Z,1.10
2018-10-01T18:26:38.247Z,1.60
2018-10-01T18:29:07.720Z,1.50
2018-10-01T18:31:37.261Z,1.13
2018-10-01T18:34:06.844Z,1.50
2018-10-01T18:36:36.269Z,1.90
2018-10-01T18:39:12.506Z,1.87
2018-10-01T18:41:42.016Z,1.70
2018-10-01T18:44:11.521Z,1.60
2018-10-01T18:46:41.038Z,1.40
2018-10-01T18:49:10.514Z,1.77
2018-10-01T18:51:39.963Z,1.50
2018-10-01T18:54:09.499Z,1.63
2018-10-01T18:56:39.043Z,1.90
2018-10-01T18:59:09.076Z,1.60
2018-10-01T19:01:38.625Z,1.57
2018-10-01T19:04:08.195Z,1.53
2018-10-01T19:06:37.747Z,1.37
2018-10-01T19:09:10.507Z,1.80
2018-10-01T19:11:40.810Z,1.50
2018-10-01T19:14:11.041Z,1.73
2018-10-01T19:16:40.607Z,2.00
2018-10-01T19:19:10.094Z,1.53
2018-10-01T19:21:39.628Z,1.37
2018-10-01T19:24:09.221Z,1.90
2018-10-01T19:26:38.775Z,1.70
2018-10-01T19:29:08.528Z,1.63
2018-10-01T19:31:38.070Z,2.03
2018-10-01T19:34:07.576Z,1.70
2018-10-01T19:36:37.755Z,1.83
2018-10-01T19:39:07.978Z,1.67
2018-10-01T19:41:37.594Z,1.73
2018-10-01T19:44:07.025Z,1.70
2018-10-01T19:46:36.975Z,1.80
2018-10-01T19:49:06.513Z,1.70
2018-10-01T19:51:36.274Z,1.50
2018-10-01T19:54:05.804Z,1.50
2018-10-01T19:56:35.292Z,1.63
2018-10-01T19:59:04.903Z,1.70
2018-10-01T20:01:34.398Z,1.60
2018-10-01T20:04:03.874Z,1.90
2018-10-01T20:06:33.488Z,1.50
2018-10-01T20:09:03.234Z,1.83
2018-10-01T20:11:32.676Z,1.80
2018-10-01T20:14:02.204Z,1.90
2018-10-01T20:16:31.876Z,1.93
2018-10-01T20:19:01.413Z,2.03
2018-10-01T20:21:31.607Z,1.80
2018-10-01T20:24:01.497Z,1.93
2018-10-01T20:26:31.173Z,1.90
2018-10-01T20:29:00.831Z,2.33
2018-10-01T20:31:29.969Z,1.90
2018-10-01T20:33:59.473Z,1.80
2018-10-01T20:36:29.040Z,1.60
2018-10-01T20:38:58.480Z,1.60
2018-10-01T20:41:28.472Z,1.50
2018-10-01T20:43:58.446Z,1.57
2018-10-01T20:46:27.864Z,2.03
2018-10-01T20:48:57.368Z,1.57
2018-10-01T20:51:26.977Z,2.30
2018-10-01T20:53:57.488Z,2.03
2018-10-01T20:56:28.100Z,1.80
2018-10-01T20:58:58.604Z,1.77
2018-10-01T21:01:28.766Z,1.50
2018-10-01T21:03:59.476Z,1.43
2018-10-01T21:06:29.867Z,1.63
2018-10-01T21:09:00.339Z,1.43
2018-10-01T21:11:29.830Z,1.43
2018-10-01T21:13:59.286Z,1.30
2018-10-01T21:16:28.731Z,1.63
2018-10-01T21:18:58.456Z,1.47
2018-10-01T21:21:27.847Z,1.50
2018-10-01T21:24:10.266Z,1.60
2018-10-01T21:26:39.964Z,1.80
2018-10-01T21:29:09.452Z,1.60
2018-10-01T21:31:38.951Z,1.33
2018-10-01T21:34:09.526Z,1.73
2018-10-01T21:36:39.084Z,1.50
2018-10-01T21:39:11.269Z,1.50
2018-10-01T21:41:40.853Z,2.10
2018-10-01T21:44:10.371Z,1.77
2018-10-01T21:46:39.924Z,1.47
2018-10-01T21:49:10.497Z,1.70
2018-10-01T21:51:40.012Z,1.93
2018-10-01T21:54:10.419Z,1.80
2018-10-01T21:56:40.413Z,1.70
2018-10-01T21:59:10.476Z,1.73
2018-10-01T22:01:41.661Z,2.10
2018-10-01T22:04:11.724Z,2.27
2018-10-01T22:06:41.586Z,1.77
2018-10-01T22:09:11.535Z,1.60
2018-10-01T22:11:45.009Z,1.60
2018-10-01T22:14:14.427Z,1.43
2018-10-01T22:16:46.837Z,1.53
2018-10-01T22:19:17.007Z,1.80
2018-10-01T22:21:47.119Z,1.67
2018-10-01T22:24:17.036Z,2.07
2018-10-01T22:26:46.451Z,2.17
2018-10-01T22:29:16.945Z,1.70
2018-10-01T22:31:47.398Z,2.00
2018-10-01T22:34:17.080Z,1.70
2018-10-01T22:36:46.881Z,1.70
2018-10-01T22:39:16.404Z,1.67
2018-10-01T22:41:45.876Z,2.20
2018-10-01T22:44:15.635Z,2.03
2018-10-01T22:46:45.113Z,2.07
2018-10-01T22:49:14.641Z,2.23
2018-10-01T22:51:45.917Z,2.17
2018-10-01T22:54:15.452Z,1.57
2018-10-01T22:56:45.133Z,1.73
2018-10-01T22:59:15.365Z,1.80
2018-10-01T23:01:45.213Z,2.20
2018-10-01T23:04:15.238Z,1.97
2018-10-01T23:06:44.764Z,2.03
2018-10-01T23:09:14.267Z,1.90
2018-10-01T23:11:45.127Z,2.23
2018-10-01T23:14:16.448Z,2.60
2018-10-01T23:16:45.993Z,1.97
2018-10-01T23:19:15.503Z,1.93
2018-10-01T23:21:45.038Z,1.67
2018-10-01T23:24:14.485Z,1.90
2018-10-01T23:26:43.905Z,2.47
2018-10-01T23:29:13.376Z,2.10
2018-10-01T23:31:42.834Z,2.23
2018-10-01T23:34:12.350Z,2.43
2018-10-01T23:36:41.823Z,1.60
2018-10-01T23:39:11.285Z,2.03
2018-10-01T23:41:40.753Z,1.83
2018-10-01T23:44:10.676Z,1.80
2018-10-01T23:46:40.194Z,1.80
2018-10-01T23:49:09.637Z,1.80
2018-10-01T23:51:39.077Z,1.70
2018-10-01T23:54:08.521Z,1.87
2018-10-01T23:56:37.982Z,1.97
2018-10-01T23:59:07.475Z,2.00
